GLD166 SBMN-SWKO
Flight info
| Callsign | GLD166 |
|---|---|
| Flight time | N/A |
| Altitude | 4500 |
| Route | REA N0150F045 0318S06011W 0325S06040W 0345S06140W 0356S06252W |
| Aircraft | C182/M-SDFGIRY/S |
Departure
| Time | 2026-05-04 19:03 |
|---|---|
| Airport | Ponta Pelada Airport / Manaus Air Base (SBMN) |
Arrival
| Time | N/A |
|---|---|
| Airport | Danilson Municipal Airport (SWKO) |
| Time | Latitude | Longitude | Altitude | Speed | Heading |
|---|---|---|---|---|---|
| 2026-05-04 19:00 | -3.14534 | -59.98645 | 255 ft | 0 kts | 198° |
| 2026-05-04 19:01 | -3.14559 | -59.98646 | 255 ft | 7 kts | 179° |
| 2026-05-04 19:01 | -3.14562 | -59.98646 | 255 ft | 0 kts | 179° |
| 2026-05-04 19:02 | -3.14584 | -59.98650 | 255 ft | 11 kts | 195° |
| 2026-05-04 19:02 | -3.14638 | -59.98773 | 257 ft | 30 kts | 260° |
| 2026-05-04 19:02 | -3.14672 | -59.98933 | 257 ft | 12 kts | 156° |
| 2026-05-04 19:02 | -3.14635 | -59.98753 | 257 ft | 53 kts | 73° |
| 2026-05-04 19:03 | -3.14498 | -59.98254 | 335 ft | 86 kts | 74° |
| 2026-05-04 19:03 | -3.14361 | -59.97662 | 639 ft | 93 kts | 79° |
| 2026-05-04 19:03 | -3.14328 | -59.96995 | 910 ft | 104 kts | 102° |
| 2026-05-04 19:03 | -3.14633 | -59.96245 | 1000 ft | 128 kts | 127° |
| 2026-05-04 19:04 | -3.15485 | -59.95898 | 1051 ft | 144 kts | 181° |
| 2026-05-04 19:04 | -3.16502 | -59.95961 | 1153 ft | 149 kts | 183° |
| 2026-05-04 19:04 | -3.17522 | -59.96137 | 1213 ft | 152 kts | 209° |
| 2026-05-04 19:04 | -3.18076 | -59.97002 | 1240 ft | 155 kts | 263° |
| 2026-05-04 19:05 | -3.17709 | -59.97988 | 1280 ft | 155 kts | 308° |
| 2026-05-04 19:05 | -3.17234 | -59.98929 | 1351 ft | 153 kts | 293° |
| 2026-05-04 19:05 | -3.16782 | -59.99897 | 1418 ft | 155 kts | 295° |
| 2026-05-04 19:05 | -3.16309 | -60.00877 | 1421 ft | 158 kts | 296° |
| 2026-05-04 19:06 | -3.15800 | -60.01857 | 1424 ft | 159 kts | 297° |
| 2026-05-04 19:06 | -3.15285 | -60.02845 | 1426 ft | 160 kts | 297° |
| 2026-05-04 19:06 | -3.14771 | -60.03833 | 1426 ft | 160 kts | 297° |
| 2026-05-04 19:06 | -3.14255 | -60.04823 | 1427 ft | 161 kts | 297° |
| 2026-05-04 19:07 | -3.13740 | -60.05815 | 1427 ft | 160 kts | 297° |
| 2026-05-04 19:07 | -3.13225 | -60.06806 | 1428 ft | 160 kts | 297° |
| 2026-05-04 19:07 | -3.12992 | -60.07873 | 1382 ft | 162 kts | 260° |
| 2026-05-04 19:07 | -3.13470 | -60.08883 | 1362 ft | 160 kts | 245° |
| 2026-05-04 19:08 | -3.13721 | -60.09966 | 1353 ft | 160 kts | 263° |
| 2026-05-04 19:08 | -3.13870 | -60.11072 | 1355 ft | 160 kts | 262° |
| 2026-05-04 19:08 | -3.14027 | -60.12176 | 1356 ft | 160 kts | 262° |
| 2026-05-04 19:08 | -3.14182 | -60.13268 | 1357 ft | 161 kts | 262° |
| 2026-05-04 19:09 | -3.14341 | -60.14374 | 1357 ft | 160 kts | 262° |
| 2026-05-04 19:09 | -3.14500 | -60.15479 | 1358 ft | 160 kts | 262° |
| 2026-05-04 19:09 | -3.14660 | -60.16585 | 1360 ft | 161 kts | 262° |
| 2026-05-04 19:09 | -3.14820 | -60.17695 | 1361 ft | 162 kts | 262° |
| 2026-05-04 19:10 | -3.14982 | -60.18809 | 1358 ft | 162 kts | 262° |
| 2026-05-04 19:10 | -3.15144 | -60.19919 | 1358 ft | 161 kts | 262° |
| 2026-05-04 19:10 | -3.15305 | -60.21026 | 1357 ft | 161 kts | 262° |
| 2026-05-04 19:10 | -3.15467 | -60.22135 | 1358 ft | 161 kts | 262° |
| 2026-05-04 19:11 | -3.15903 | -60.23139 | 1313 ft | 162 kts | 225° |
| 2026-05-04 19:11 | -3.16962 | -60.23470 | 1265 ft | 166 kts | 177° |
| 2026-05-04 19:11 | -3.18057 | -60.23178 | 1257 ft | 165 kts | 158° |
| 2026-05-04 19:11 | -3.19094 | -60.22695 | 1257 ft | 164 kts | 155° |